createdAt,value
2023-02-11T00:00:37.441Z,76.400
2023-02-11T00:01:37.233Z,75.100
2023-02-11T00:02:37.173Z,73.400
2023-02-11T00:03:37.237Z,73.700
2023-02-11T00:05:36.780Z,74.400
2023-02-11T00:06:37.496Z,73.900
2023-02-11T00:07:37.142Z,73.500
2023-02-11T00:08:36.923Z,74.300
2023-02-11T00:09:36.626Z,73.400
2023-02-11T00:10:37.316Z,77.800
2023-02-11T00:11:37.150Z,76.400
2023-02-11T00:12:36.866Z,77.700
2023-02-11T00:13:37.557Z,74.700
2023-02-11T00:14:37.285Z,75.400
2023-02-11T00:15:36.949Z,72.800
2023-02-11T00:16:36.849Z,71.700
2023-02-11T00:17:37.555Z,72.200
2023-02-11T00:18:37.209Z,76.700
2023-02-11T00:19:36.862Z,70.700
2023-02-11T00:21:37.384Z,70.900
2023-02-11T00:22:37.123Z,72.300
2023-02-11T00:23:36.871Z,73.300
2023-02-11T00:24:37.591Z,76.800
2023-02-11T00:26:37.564Z,76.400
2023-02-11T00:27:37.321Z,74.600
2023-02-11T00:28:37.204Z,76.400
2023-02-11T00:29:36.904Z,75.900
2023-02-11T00:30:36.836Z,73.400
2023-02-11T00:31:37.250Z,73.400
2023-02-11T00:32:37.020Z,70.900
2023-02-11T00:33:36.811Z,72.600
2023-02-11T00:34:37.410Z,70.300
2023-02-11T00:35:37.193Z,70.400
2023-02-11T00:36:36.891Z,70.900
2023-02-11T00:37:36.724Z,71.000
2023-02-11T00:38:37.352Z,69.800
2023-02-11T00:39:37.124Z,68.400
2023-02-11T00:40:36.924Z,70.400
2023-02-11T00:41:36.610Z,72.100
2023-02-11T00:42:37.387Z,70.900
2023-02-11T00:43:37.181Z,70.100
2023-02-11T00:44:36.837Z,68.300
2023-02-11T00:45:37.733Z,68.800
2023-02-11T00:46:37.524Z,68.900
2023-02-11T00:47:37.194Z,67.900
2023-02-11T00:48:36.916Z,71.100
2023-02-11T00:49:36.540Z,67.100
2023-02-11T00:50:37.235Z,67.100
2023-02-11T00:52:36.683Z,67.700
2023-02-11T00:53:38.566Z,66.600
2023-02-11T00:55:36.841Z,68.900
2023-02-11T00:56:39.355Z,67.400
2023-02-11T00:57:36.715Z,69.100
2023-02-11T00:58:37.396Z,65.800
2023-02-11T01:00:37.106Z,62.800
2023-02-11T01:01:37.408Z,70.400
2023-02-11T01:02:37.125Z,67.700
2023-02-11T01:03:36.919Z,69.800
2023-02-11T01:04:36.589Z,66.700
2023-02-11T01:05:37.624Z,67.100
2023-02-11T01:06:37.329Z,65.600
2023-02-11T01:07:36.971Z,65.500
2023-02-11T01:08:36.649Z,68.700
2023-02-11T01:09:37.318Z,65.400
2023-02-11T01:10:36.885Z,67.800
2023-02-11T01:11:36.738Z,67.300
2023-02-11T01:12:38.364Z,65.300
2023-02-11T01:13:37.071Z,65.000
2023-02-11T01:14:36.976Z,65.800
2023-02-11T01:15:36.837Z,65.300
2023-02-11T01:16:36.819Z,67.500
2023-02-11T01:17:37.637Z,65.500
2023-02-11T01:18:37.316Z,64.500
2023-02-11T01:19:38.407Z,66.500
2023-02-11T01:20:37.132Z,66.700
2023-02-11T01:21:36.769Z,67.900
2023-02-11T01:22:37.431Z,66.700
2023-02-11T01:23:37.018Z,64.000
2023-02-11T01:24:36.739Z,65.100
2023-02-11T01:25:37.443Z,66.700
2023-02-11T01:26:37.144Z,65.900
2023-02-11T01:28:38.015Z,64.600
2023-02-11T01:29:36.929Z,68.100
2023-02-11T01:30:37.714Z,64.800
2023-02-11T01:31:37.887Z,68.100
2023-02-11T01:32:36.805Z,67.800
2023-02-11T01:33:37.425Z,64.400
2023-02-11T01:34:37.124Z,68.600
2023-02-11T01:36:37.648Z,64.000
2023-02-11T01:37:37.381Z,67.400
2023-02-11T01:38:37.016Z,66.200
2023-02-11T01:39:37.830Z,64.400
2023-02-11T01:41:37.525Z,69.100
2023-02-11T01:42:37.273Z,65.400
2023-02-11T01:43:37.029Z,65.700
2023-02-11T01:44:36.693Z,65.600
2023-02-11T01:45:37.536Z,64.700
2023-02-11T01:46:37.758Z,64.500
2023-02-11T01:47:36.925Z,70.800
2023-02-11T01:48:36.759Z,66.900
2023-02-11T01:49:37.945Z,67.000
2023-02-11T01:50:36.696Z,68.000
2023-02-11T01:51:37.459Z,67.200
2023-02-11T01:52:37.116Z,67.600
2023-02-11T01:53:36.858Z,68.700
2023-02-11T01:54:36.544Z,65.500
2023-02-11T01:56:36.903Z,63.200
2023-02-11T01:57:36.788Z,65.600
2023-02-11T01:58:37.447Z,62.200
2023-02-11T01:59:37.201Z,63.300
2023-02-11T02:00:37.063Z,65.200
2023-02-11T02:01:37.002Z,63.700
2023-02-11T02:02:36.813Z,65.200
2023-02-11T02:04:37.407Z,65.200
2023-02-11T02:05:37.160Z,63.300
2023-02-11T02:06:37.315Z,65.800
2023-02-11T02:07:37.024Z,65.300
2023-02-11T02:08:36.743Z,64.200
2023-02-11T02:10:37.204Z,64.100
2023-02-11T02:12:36.826Z,64.300
2023-02-11T02:13:37.571Z,63.000
2023-02-11T02:14:37.296Z,63.800
2023-02-11T02:15:37.107Z,60.600
2023-02-11T02:17:36.860Z,64.100
2023-02-11T02:18:36.565Z,64.700
2023-02-11T02:19:37.300Z,63.600
2023-02-11T02:20:37.065Z,65.400
2023-02-11T02:21:36.784Z,65.500
2023-02-11T02:22:37.399Z,63.400
2023-02-11T02:23:37.119Z,62.800
2023-02-11T02:24:36.821Z,62.400
2023-02-11T02:25:37.792Z,62.400
2023-02-11T02:26:37.584Z,63.400
2023-02-11T02:27:37.251Z,64.000
2023-02-11T02:28:37.205Z,64.300
2023-02-11T02:29:36.941Z,66.200
2023-02-11T02:30:36.836Z,62.500
2023-02-11T02:31:37.880Z,64.500
2023-02-11T02:32:36.620Z,63.400
2023-02-11T02:33:42.278Z,63.400
2023-02-11T02:34:37.066Z,61.100
2023-02-11T02:35:36.743Z,63.400
2023-02-11T02:36:37.369Z,65.300
2023-02-11T02:37:37.169Z,63.000
2023-02-11T02:38:36.858Z,63.900
2023-02-11T02:40:37.312Z,59.500
2023-02-11T02:41:37.012Z,62.300
2023-02-11T02:42:36.851Z,61.300
2023-02-11T02:43:37.542Z,59.200
2023-02-11T02:44:37.652Z,61.800
2023-02-11T02:45:37.383Z,63.100
2023-02-11T02:46:37.382Z,62.400
2023-02-11T02:47:37.184Z,61.500
2023-02-11T02:48:36.839Z,61.100
2023-02-11T02:49:37.485Z,58.800
2023-02-11T02:50:37.254Z,62.500
2023-02-11T02:52:36.660Z,59.900
2023-02-11T02:53:37.524Z,62.500
2023-02-11T02:54:37.248Z,62.500
2023-02-11T02:55:36.900Z,59.100
2023-02-11T02:56:36.959Z,60.400
2023-02-11T02:57:36.654Z,60.800
2023-02-11T02:58:37.332Z,58.600
2023-02-11T02:59:36.885Z,60.300
2023-02-11T03:00:37.631Z,62.100
2023-02-11T03:01:37.426Z,61.700
2023-02-11T03:02:39.128Z,59.400
2023-02-11T03:03:36.981Z,57.200
2023-02-11T03:04:36.802Z,61.400
2023-02-11T03:05:37.444Z,59.500
2023-02-11T03:07:37.374Z,58.600
2023-02-11T03:08:37.122Z,59.700
2023-02-11T03:09:36.801Z,59.800
2023-02-11T03:10:37.621Z,60.100
2023-02-11T03:11:37.284Z,58.300
2023-02-11T03:12:36.957Z,59.900
2023-02-11T03:13:37.103Z,60.200
2023-02-11T03:14:36.882Z,58.900
2023-02-11T03:15:37.688Z,58.500
2023-02-11T03:16:37.626Z,60.600
2023-02-11T03:17:37.592Z,61.500
2023-02-11T03:18:37.373Z,58.700
2023-02-11T03:20:36.844Z,59.800
2023-02-11T03:21:37.540Z,61.500
2023-02-11T03:22:37.387Z,62.900
2023-02-11T03:23:37.188Z,59.500
2023-02-11T03:24:37.576Z,58.800
2023-02-11T03:25:37.213Z,60.700
2023-02-11T03:26:36.809Z,61.300
2023-02-11T03:27:37.569Z,59.300
2023-02-11T03:28:37.376Z,60.100
2023-02-11T03:30:36.876Z,56.600
2023-02-11T03:31:38.047Z,58.700
2023-02-11T03:33:36.921Z,60.000
2023-02-11T03:34:36.637Z,58.200
2023-02-11T03:35:37.276Z,58.800
2023-02-11T03:36:36.957Z,60.900
2023-02-11T03:37:36.616Z,60.400
2023-02-11T03:38:37.184Z,59.400
2023-02-11T03:39:36.881Z,61.600
2023-02-11T03:40:36.748Z,57.200
2023-02-11T03:42:37.357Z,60.000
2023-02-11T03:43:37.268Z,56.200
2023-02-11T03:44:37.039Z,59.600
2023-02-11T03:45:36.932Z,59.700
2023-02-11T03:47:36.592Z,57.000
2023-02-11T03:48:37.320Z,55.400
2023-02-11T03:49:37.326Z,60.500
2023-02-11T03:50:37.088Z,58.300
2023-02-11T03:52:36.596Z,62.100
2023-02-11T03:53:37.357Z,58.400
2023-02-11T03:54:37.001Z,60.200
2023-02-11T03:55:36.619Z,59.300
2023-02-11T03:57:36.969Z,58.500
2023-02-11T03:58:36.644Z,59.500
2023-02-11T03:59:37.393Z,58.500
2023-02-11T04:00:37.204Z,59.700
2023-02-11T04:02:36.884Z,57.700
2023-02-11T04:03:37.985Z,57.400
2023-02-11T04:04:36.854Z,56.600
2023-02-11T04:05:36.842Z,56.700
2023-02-11T04:06:37.549Z,57.000
2023-02-11T04:07:37.297Z,57.000
2023-02-11T04:08:37.350Z,57.200
2023-02-11T04:09:37.057Z,56.500
2023-02-11T04:10:36.835Z,58.200
2023-02-11T04:12:37.293Z,56.100
2023-02-11T04:13:37.181Z,58.100
2023-02-11T04:14:36.873Z,56.700
2023-02-11T04:15:38.328Z,59.300
2023-02-11T04:17:37.150Z,57.500
2023-02-11T04:18:37.093Z,58.000
2023-02-11T04:19:36.974Z,59.300
2023-02-11T04:20:36.843Z,59.400
2023-02-11T04:21:37.557Z,57.200
2023-02-11T04:22:38.343Z,57.700
2023-02-11T04:23:37.129Z,58.700
2023-02-11T04:25:36.632Z,56.100
2023-02-11T04:26:37.513Z,56.500
2023-02-11T04:27:37.182Z,55.700
2023-02-11T04:28:37.286Z,56.800
2023-02-11T04:29:37.541Z,54.800
2023-02-11T04:30:37.537Z,54.000
2023-02-11T04:31:37.605Z,54.500
2023-02-11T04:32:37.500Z,56.800
2023-02-11T04:33:37.198Z,56.100
2023-02-11T04:34:37.041Z,55.700
2023-02-11T04:35:36.887Z,55.000
2023-02-11T04:36:36.620Z,54.300
2023-02-11T04:37:37.332Z,55.900
2023-02-11T04:38:37.064Z,56.100
2023-02-11T04:39:36.962Z,54.200
2023-02-11T04:40:36.570Z,56.900
2023-02-11T04:41:37.265Z,57.000
2023-02-11T04:42:38.763Z,55.100
2023-02-11T04:43:37.516Z,53.700
2023-02-11T04:44:37.310Z,54.800
2023-02-11T04:45:37.003Z,55.300
2023-02-11T04:46:37.038Z,54.700
2023-02-11T04:47:36.789Z,54.200
2023-02-11T04:48:37.658Z,57.400
2023-02-11T04:49:37.608Z,56.600
2023-02-11T04:50:37.457Z,53.600
2023-02-11T04:51:37.176Z,56.100
2023-02-11T04:53:37.652Z,55.600
2023-02-11T04:54:37.393Z,56.600
2023-02-11T04:55:37.097Z,57.100
2023-02-11T04:56:36.757Z,57.000
2023-02-11T04:58:37.521Z,58.600
2023-02-11T04:59:37.289Z,55.200
2023-02-11T05:00:37.189Z,58.400
2023-02-11T05:01:37.327Z,57.000
2023-02-11T05:02:37.086Z,57.500
2023-02-11T05:03:36.873Z,55.000
2023-02-11T05:04:37.064Z,55.300
2023-02-11T05:05:36.849Z,55.800
2023-02-11T05:06:37.543Z,52.500
2023-02-11T05:07:37.215Z,55.900
2023-02-11T05:08:37.069Z,54.000
2023-02-11T05:09:36.834Z,52.900
2023-02-11T05:10:37.626Z,53.200
2023-02-11T05:11:37.278Z,54.200
2023-02-11T05:12:36.968Z,53.100
2023-02-11T05:13:36.764Z,55.000
2023-02-11T05:14:37.503Z,51.900
2023-02-11T05:15:37.371Z,52.700
2023-02-11T05:16:37.440Z,53.100
2023-02-11T05:17:37.552Z,52.600
2023-02-11T05:18:37.476Z,54.500
2023-02-11T05:19:37.175Z,52.800
2023-02-11T05:20:36.921Z,55.000
2023-02-11T05:21:36.987Z,52.300
2023-02-11T05:22:39.017Z,53.600
2023-02-11T05:23:36.864Z,54.100
2023-02-11T05:24:37.601Z,51.200
2023-02-11T05:25:37.636Z,55.300
2023-02-11T05:26:37.569Z,52.000
2023-02-11T05:27:37.297Z,52.800
2023-02-11T05:28:37.121Z,55.400
2023-02-11T05:29:36.834Z,54.200
2023-02-11T05:30:37.676Z,53.600
2023-02-11T05:31:37.656Z,53.200
2023-02-11T05:32:37.272Z,54.500
2023-02-11T05:33:37.009Z,54.600
2023-02-11T05:34:36.827Z,49.800
2023-02-11T05:35:37.615Z,51.100
2023-02-11T05:36:37.355Z,52.500
2023-02-11T05:37:37.530Z,55.500
2023-02-11T05:38:37.223Z,51.200
2023-02-11T05:39:36.927Z,54.200
2023-02-11T05:40:36.703Z,51.500
2023-02-11T05:41:37.400Z,53.200
2023-02-11T05:42:37.079Z,53.200
2023-02-11T05:43:37.060Z,52.000
2023-02-11T05:45:37.428Z,53.700
2023-02-11T05:46:37.510Z,51.600
2023-02-11T05:47:37.285Z,53.700
2023-02-11T05:48:36.920Z,54.300
2023-02-11T05:49:36.678Z,52.100
2023-02-11T05:50:37.397Z,49.200
2023-02-11T05:52:37.141Z,52.300
2023-02-11T05:53:37.017Z,52.400
2023-02-11T05:55:37.536Z,51.000
2023-02-11T05:56:37.172Z,52.800
2023-02-11T05:57:36.803Z,51.400
2023-02-11T05:58:37.465Z,49.700
2023-02-11T06:00:36.922Z,51.000
2023-02-11T06:01:36.672Z,52.200
2023-02-11T06:02:37.464Z,53.200
2023-02-11T06:03:37.316Z,50.600
2023-02-11T06:05:37.190Z,55.200
2023-02-11T06:06:37.008Z,54.100
2023-02-11T06:07:36.767Z,54.600
2023-02-11T06:08:40.869Z,54.100
2023-02-11T06:09:37.560Z,55.100
2023-02-11T06:10:37.239Z,54.400
2023-02-11T06:11:37.051Z,56.400
2023-02-11T06:12:36.765Z,54.000
2023-02-11T06:13:37.489Z,53.600
2023-02-11T06:14:37.323Z,52.900
2023-02-11T06:15:37.437Z,53.700
2023-02-11T06:16:37.225Z,54.200
2023-02-11T06:17:36.806Z,53.200
2023-02-11T06:18:37.492Z,52.600
2023-02-11T06:19:37.187Z,53.800
2023-02-11T06:20:36.830Z,52.500
2023-02-11T06:22:37.081Z,51.600
2023-02-11T06:25:00.658Z,52.000
2023-02-11T06:26:50.044Z,52.800
2023-02-11T06:27:49.736Z,50.100
2023-02-11T06:28:50.661Z,52.900
2023-02-11T06:33:02.087Z,52.200
2023-02-11T06:34:51.830Z,50.700
2023-02-11T06:35:53.075Z,52.900
2023-02-11T06:36:51.952Z,51.500
2023-02-11T06:37:51.624Z,52.400
2023-02-11T06:38:52.272Z,50.300
2023-02-11T06:39:52.074Z,50.600
2023-02-11T06:40:51.804Z,52.500
2023-02-11T06:44:52.169Z,53.900
2023-02-11T06:45:52.336Z,52.600
2023-02-11T06:49:51.849Z,50.000
2023-02-11T06:52:51.644Z,53.700
2023-02-11T06:54:52.003Z,51.100
2023-02-11T06:56:51.718Z,50.600
2023-02-11T06:57:52.369Z,48.900
2023-02-11T06:59:51.796Z,50.800
2023-02-11T07:00:52.540Z,50.400
2023-02-11T07:02:54.145Z,49.600
2023-02-11T07:04:53.044Z,50.900
2023-02-11T07:06:51.734Z,49.800
2023-02-11T07:07:52.476Z,49.700
2023-02-11T07:10:52.023Z,48.900
2023-02-11T07:11:51.675Z,50.300
2023-02-11T07:14:51.941Z,49.200
2023-02-11T07:15:52.293Z,47.900
2023-02-11T07:18:51.827Z,50.700
2023-02-11T07:19:52.521Z,48.600
2023-02-11T07:21:51.888Z,49.300
2023-02-11T07:23:53.051Z,50.600
2023-02-11T07:25:52.851Z,50.600
2023-02-11T07:27:52.264Z,49.600
2023-02-11T07:29:51.781Z,49.900
2023-02-11T07:30:52.414Z,49.500
2023-02-11T07:35:52.542Z,50.000
2023-02-11T07:38:51.801Z,48.900
2023-02-11T07:40:52.245Z,48.000
2023-02-11T07:41:55.209Z,47.700
2023-02-11T07:43:51.934Z,48.700
2023-02-11T07:45:52.425Z,48.800
2023-02-11T07:50:52.278Z,50.700
2023-02-11T07:51:52.049Z,52.400
2023-02-11T07:53:51.722Z,51.600
2023-02-11T07:55:52.670Z,51.700
2023-02-11T07:57:52.098Z,50.400
2023-02-11T07:58:51.798Z,52.400
2023-02-11T08:00:55.119Z,50.600
2023-02-11T08:02:52.789Z,49.500
2023-02-11T08:03:52.501Z,50.100
2023-02-11T08:05:52.585Z,49.500
2023-02-11T08:09:52.776Z,47.100
2023-02-11T08:10:53.479Z,47.100
2023-02-11T08:15:52.404Z,45.300
2023-02-11T08:19:53.285Z,44.700
2023-02-11T08:22:51.649Z,44.300
2023-02-11T08:23:52.372Z,44.500
2023-02-11T08:24:54.193Z,48.100
2023-02-11T08:25:51.863Z,47.500
2023-02-11T08:27:52.232Z,45.800
2023-02-11T08:28:52.039Z,46.000
2023-02-11T08:29:51.708Z,43.900
2023-02-11T08:30:53.031Z,43.600
2023-02-11T08:34:51.651Z,47.200
2023-02-11T08:35:52.390Z,44.900
2023-02-11T08:37:51.771Z,42.700
2023-02-11T08:38:52.602Z,45.400
2023-02-11T08:39:55.483Z,44.700
2023-02-11T08:40:52.748Z,44.100
2023-02-11T08:43:52.050Z,45.200
2023-02-11T08:44:51.921Z,43.500
2023-02-11T08:45:52.820Z,44.200
2023-02-11T08:47:52.457Z,45.500
2023-02-11T08:49:52.029Z,43.500
2023-02-11T08:50:51.737Z,43.300
2023-02-11T08:53:51.944Z,41.700
2023-02-11T08:54:51.583Z,43.100
2023-02-11T08:55:52.890Z,44.300
2023-02-11T08:57:52.393Z,43.300
2023-02-11T08:58:54.694Z,42.600
2023-02-11T09:00:52.814Z,43.500
2023-02-11T09:02:51.797Z,43.400
2023-02-11T09:03:52.392Z,43.500
2023-02-11T09:04:52.184Z,42.100
2023-02-11T09:05:52.109Z,41.500
2023-02-11T09:08:51.851Z,42.400
2023-02-11T09:09:52.515Z,42.100
2023-02-11T09:13:55.023Z,41.400
2023-02-11T09:14:51.800Z,42.300
2023-02-11T09:15:52.544Z,40.900
2023-02-11T09:18:52.011Z,41.900
2023-02-11T09:19:51.799Z,43.100
2023-02-11T09:20:52.979Z,42.900
2023-02-11T09:22:53.155Z,41.000
2023-02-11T09:23:54.171Z,42.300
2023-02-11T09:25:52.170Z,42.900
2023-02-11T09:27:51.902Z,42.300
2023-02-11T09:28:51.913Z,41.600
2023-02-11T09:29:51.662Z,42.700
2023-02-11T09:30:53.446Z,43.200
2023-02-11T09:35:52.722Z,41.800
2023-02-11T09:37:55.193Z,42.100
2023-02-11T09:39:51.832Z,41.500
2023-02-11T09:40:53.142Z,41.600
2023-02-11T09:42:51.675Z,41.400
2023-02-11T09:43:52.428Z,38.900
2023-02-11T09:45:52.203Z,39.200
2023-02-11T09:47:52.505Z,40.600
2023-02-11T09:48:52.492Z,40.100
2023-02-11T09:50:52.406Z,39.000
2023-02-11T09:53:51.806Z,37.800
2023-02-11T09:55:52.189Z,39.800
2023-02-11T09:56:51.869Z,35.000
2023-02-11T09:57:56.490Z,35.700
2023-02-11T09:58:52.180Z,39.200
2023-02-11T10:01:52.276Z,39.200
2023-02-11T10:03:52.340Z,33.900
2023-02-11T10:04:52.288Z,36.300
2023-02-11T10:06:52.133Z,32.900
2023-02-11T10:07:51.829Z,33.100
2023-02-11T10:08:52.883Z,37.000
2023-02-11T10:09:51.628Z,32.200
2023-02-11T10:11:56.575Z,32.100
2023-02-11T10:14:52.108Z,32.100
2023-02-11T10:15:51.984Z,31.900
2023-02-11T10:17:52.558Z,32.900
2023-02-11T10:19:51.848Z,32.100
2023-02-11T10:20:53.465Z,31.000
2023-02-11T10:22:51.915Z,31.500
2023-02-11T10:23:52.743Z,31.000
2023-02-11T10:25:52.197Z,31.400
2023-02-11T10:27:52.536Z,29.300
2023-02-11T10:28:52.529Z,30.300
2023-02-11T10:33:51.752Z,31.100
2023-02-11T10:36:51.916Z,30.000
2023-02-11T10:38:52.895Z,30.700
2023-02-11T10:40:54.518Z,31.100
2023-02-11T10:42:55.823Z,31.200
2023-02-11T10:43:51.591Z,31.500
2023-02-11T10:44:52.324Z,31.100
2023-02-11T10:46:52.148Z,31.000
2023-02-11T10:48:52.085Z,31.400
2023-02-11T10:49:51.845Z,30.300
2023-02-11T10:50:53.102Z,31.200
2023-02-11T10:51:51.801Z,32.200
2023-02-11T10:53:52.062Z,31.500
2023-02-11T10:54:51.729Z,31.400
2023-02-11T10:55:52.376Z,30.200
2023-02-11T10:56:52.050Z,31.700
2023-02-11T10:58:52.225Z,31.000
2023-02-11T10:59:51.914Z,31.400
2023-02-11T11:00:53.064Z,33.900
2023-02-11T11:01:57.161Z,31.800
2023-02-11T11:03:51.671Z,31.500
2023-02-11T11:04:52.528Z,32.200
2023-02-11T11:06:52.643Z,30.200
2023-02-11T11:09:51.890Z,31.800
2023-02-11T11:11:51.611Z,31.200
2023-02-11T11:12:52.423Z,34.300
2023-02-11T11:14:51.776Z,30.500
2023-02-11T11:15:53.595Z,32.200
2023-02-11T11:17:52.201Z,32.100
2023-02-11T11:18:56.752Z,30.700
2023-02-11T11:20:53.033Z,32.500
2023-02-11T11:22:52.109Z,31.900
2023-02-11T11:23:51.933Z,32.200
2023-02-11T11:25:52.281Z,30.900
2023-02-11T11:27:52.206Z,31.900
2023-02-11T11:28:52.047Z,32.600
2023-02-11T11:30:52.411Z,31.600
2023-02-11T11:31:52.274Z,32.800
2023-02-11T11:32:55.232Z,32.200
2023-02-11T11:33:51.957Z,32.400
2023-02-11T11:35:52.473Z,31.600
2023-02-11T11:36:52.173Z,32.700
2023-02-11T11:38:51.610Z,32.600
2023-02-11T11:40:52.434Z,33.400
2023-02-11T11:41:52.160Z,32.300
2023-02-11T11:43:52.556Z,31.700
2023-02-11T11:44:52.265Z,32.700
2023-02-11T11:46:51.979Z,31.700
2023-02-11T11:48:52.318Z,33.000
2023-02-11T11:49:51.966Z,32.400
2023-02-11T11:52:51.861Z,32.100
2023-02-11T11:57:52.237Z,31.900
2023-02-11T11:59:51.600Z,32.900
2023-02-11T12:00:53.173Z,32.500
2023-02-11T12:02:51.829Z,30.800
2023-02-11T12:03:52.608Z,31.400
2023-02-11T12:05:52.008Z,34.800
2023-02-11T12:07:51.700Z,32.000
2023-02-11T12:08:52.433Z,31.300
2023-02-11T12:09:52.195Z,32.800
2023-02-11T12:10:52.464Z,33.000
2023-02-11T12:13:52.605Z,33.400
2023-02-11T12:16:52.272Z,32.600
2023-02-11T12:17:52.054Z,33.100
2023-02-11T12:18:51.941Z,33.100
2023-02-11T12:20:52.782Z,33.600
2023-02-11T12:22:52.133Z,33.100
2023-02-11T12:23:51.833Z,32.100
2023-02-11T12:26:52.436Z,34.300
2023-02-11T12:28:51.917Z,33.900
2023-02-11T12:30:52.907Z,32.300
2023-02-11T12:33:51.795Z,33.400
2023-02-11T12:34:52.452Z,35.500
2023-02-11T12:37:52.416Z,33.400
2023-02-11T12:38:52.088Z,34.200
2023-02-11T12:39:52.012Z,33.900
2023-02-11T12:40:52.422Z,33.500
2023-02-11T12:42:52.017Z,33.400
2023-02-11T12:43:51.793Z,33.000
2023-02-11T12:45:52.249Z,33.800
2023-02-11T12:48:53.813Z,34.500
2023-02-11T12:52:51.732Z,33.000
2023-02-11T12:54:52.058Z,34.200
2023-02-11T12:56:52.291Z,36.200
2023-02-11T12:57:52.010Z,35.300
2023-02-11T12:59:01.750Z,35.500
2023-02-11T13:00:53.131Z,35.800
2023-02-11T13:02:52.696Z,36.300
2023-02-11T13:05:51.721Z,34.000
2023-02-11T13:07:52.151Z,34.700
2023-02-11T13:08:51.788Z,34.600
2023-02-11T13:10:52.760Z,35.400
2023-02-11T13:12:52.322Z,33.100
2023-02-11T13:13:52.075Z,33.000
2023-02-11T13:15:52.315Z,33.800
2023-02-11T13:16:52.349Z,34.400
2023-02-11T13:18:54.649Z,34.800
2023-02-11T13:20:52.467Z,34.300
2023-02-11T13:23:51.664Z,34.700
2023-02-11T13:24:52.353Z,33.300
2023-02-11T13:26:51.800Z,34.200
2023-02-11T13:27:52.404Z,33.600
2023-02-11T13:29:52.120Z,34.800
2023-02-11T13:30:52.763Z,34.500
2023-02-11T13:32:51.691Z,34.000
2023-02-11T13:37:52.465Z,35.200
2023-02-11T13:38:52.215Z,35.600
2023-02-11T13:40:53.067Z,35.500
2023-02-11T13:42:51.600Z,34.000
2023-02-11T13:43:52.256Z,34.800
2023-02-11T13:45:51.826Z,34.600
2023-02-11T13:46:51.828Z,32.800
2023-02-11T13:47:54.469Z,34.700
2023-02-11T13:48:52.459Z,33.200
2023-02-11T13:50:52.397Z,35.100
2023-02-11T13:51:52.371Z,33.400
2023-02-11T13:53:51.883Z,33.900
2023-02-11T13:54:51.849Z,34.000
2023-02-11T13:55:52.456Z,35.200
2023-02-11T13:57:51.752Z,33.800
2023-02-11T13:59:52.112Z,34.500
2023-02-11T14:01:52.072Z,35.000
2023-02-11T14:02:52.050Z,33.900
2023-02-11T14:03:51.739Z,34.300
2023-02-11T14:08:55.381Z,35.000
2023-02-11T14:10:52.304Z,36.400
2023-02-11T14:12:52.032Z,34.500
2023-02-11T14:13:51.854Z,33.800
2023-02-11T14:15:52.274Z,34.300
2023-02-11T14:16:57.168Z,34.500
2023-02-11T14:17:52.148Z,35.500
2023-02-11T14:18:52.065Z,33.900
2023-02-11T14:20:53.012Z,34.600
2023-02-11T14:22:52.532Z,34.100
2023-02-11T14:23:52.321Z,34.600
2023-02-11T14:25:51.661Z,32.700
2023-02-11T14:26:55.301Z,35.100
2023-02-11T14:28:52.016Z,33.700
2023-02-11T14:30:53.268Z,34.900
2023-02-11T14:32:52.092Z,34.100
2023-02-11T14:33:51.791Z,32.700
2023-02-11T14:34:52.597Z,33.800
2023-02-11T14:35:52.292Z,34.400
2023-02-11T14:37:52.711Z,33.400
2023-02-11T14:39:52.494Z,33.600
2023-02-11T14:40:52.952Z,34.700
2023-02-11T14:42:51.889Z,34.900
2023-02-11T14:44:51.922Z,35.300
2023-02-11T14:45:52.559Z,32.900
2023-02-11T14:47:52.168Z,34.100
2023-02-11T14:49:51.872Z,34.600
2023-02-11T14:50:53.109Z,35.100
2023-02-11T14:52:51.729Z,36.200
2023-02-11T14:53:52.491Z,35.000
2023-02-11T14:55:53.393Z,33.100
2023-02-11T14:57:51.797Z,33.600
2023-02-11T14:58:52.527Z,35.700
2023-02-11T15:01:52.308Z,33.900
2023-02-11T15:04:51.895Z,35.700
2023-02-11T15:06:51.832Z,37.300
2023-02-11T15:07:52.489Z,35.000
2023-02-11T15:09:51.806Z,35.800
2023-02-11T15:11:52.453Z,33.700
2023-02-11T15:14:52.493Z,36.500
2023-02-11T15:16:52.104Z,34.700
2023-02-11T15:18:53.794Z,42.500
2023-02-11T15:20:01.314Z,36.600
2023-02-11T15:21:00.026Z,34.100
2023-02-11T15:21:59.829Z,34.800
2023-02-11T15:23:00.524Z,36.100
2023-02-11T15:24:00.256Z,34.700
2023-02-11T15:24:59.904Z,36.200
2023-02-11T15:25:59.640Z,35.200
2023-02-11T15:27:00.327Z,34.300
2023-02-11T15:28:00.102Z,36.000
2023-02-11T15:29:00.137Z,34.100
2023-02-11T15:29:59.909Z,34.300
2023-02-11T15:30:59.817Z,35.200
2023-02-11T15:32:01.199Z,32.600
2023-02-11T15:33:00.408Z,32.600
2023-02-11T15:34:00.257Z,32.900
2023-02-11T15:34:59.976Z,34.800
2023-02-11T15:35:59.686Z,32.300
2023-02-11T15:37:00.402Z,33.500
2023-02-11T15:38:00.162Z,34.900
2023-02-11T15:38:59.916Z,33.900
2023-02-11T15:39:59.541Z,33.100
2023-02-11T15:41:00.293Z,31.600
2023-02-11T15:42:00.101Z,31.200
2023-02-11T15:43:04.697Z,33.600
2023-02-11T15:44:00.557Z,33.800
2023-02-11T15:45:00.270Z,34.100
2023-02-11T15:46:00.130Z,33.800
2023-02-11T15:47:00.126Z,34.700
2023-02-11T15:47:59.834Z,35.400
2023-02-11T15:49:00.480Z,33.400
2023-02-11T15:50:00.328Z,32.400
2023-02-11T15:51:00.367Z,33.300
2023-02-11T15:52:00.261Z,32.700
2023-02-11T15:52:59.977Z,33.100
2023-02-11T15:53:59.707Z,33.900
2023-02-11T15:55:00.396Z,33.000
2023-02-11T15:56:00.121Z,32.500
2023-02-11T15:56:59.794Z,33.200
2023-02-11T15:58:00.416Z,33.500
2023-02-11T15:59:00.146Z,33.400
2023-02-11T15:59:59.962Z,33.400
2023-02-11T16:00:59.899Z,33.200
2023-02-11T16:01:59.925Z,33.300
2023-02-11T16:02:59.580Z,31.200
2023-02-11T16:04:00.534Z,33.000
2023-02-11T16:05:00.368Z,32.900
2023-02-11T16:05:59.980Z,32.100
2023-02-11T16:06:59.628Z,34.200
2023-02-11T16:09:00.158Z,32.900
2023-02-11T16:09:59.856Z,33.300
2023-02-11T16:10:59.749Z,33.700
2023-02-11T16:12:00.465Z,34.500
2023-02-11T16:13:00.161Z,33.500
2023-02-11T16:13:59.883Z,34.700
2023-02-11T16:15:00.529Z,34.900
2023-02-11T16:16:00.188Z,33.700
2023-02-11T16:16:59.941Z,33.700
2023-02-11T16:17:59.597Z,31.800
2023-02-11T16:19:15.089Z,33.000
2023-02-11T16:21:04.945Z,35.300
2023-02-11T16:22:04.688Z,33.700
2023-02-11T16:23:05.403Z,32.400
2023-02-11T16:24:05.156Z,32.500
2023-02-11T16:25:04.853Z,34.000
2023-02-11T16:26:05.548Z,35.600
2023-02-11T16:27:05.257Z,36.300
2023-02-11T16:29:05.728Z,34.400
2023-02-11T16:30:05.553Z,36.600
2023-02-11T16:31:05.791Z,37.100
2023-02-11T16:32:05.817Z,35.900
2023-02-11T16:34:05.234Z,34.200
2023-02-11T16:35:05.007Z,34.100
2023-02-11T16:36:04.725Z,33.600
2023-02-11T16:37:05.654Z,33.800
2023-02-11T16:39:05.031Z,37.300
2023-02-11T16:40:04.974Z,36.500
2023-02-11T16:41:04.837Z,36.100
2023-02-11T16:42:08.798Z,35.700
2023-02-11T16:44:05.401Z,36.300
2023-02-11T16:45:05.341Z,36.000
2023-02-11T16:46:05.414Z,33.400
2023-02-11T16:47:05.656Z,37.400
2023-02-11T16:49:04.997Z,40.000
2023-02-11T16:50:04.709Z,40.400
2023-02-11T16:51:09.294Z,39.300
2023-02-11T16:54:05.468Z,36.400
2023-02-11T16:55:05.221Z,36.800
2023-02-11T16:56:04.884Z,36.700
2023-02-11T16:57:04.604Z,39.500
2023-02-11T16:59:04.960Z,37.600
2023-02-11T17:00:04.740Z,37.700
2023-02-11T17:02:04.950Z,38.100
2023-02-11T17:04:05.858Z,35.600
2023-02-11T17:06:11.769Z,37.100
2023-02-11T17:07:04.552Z,36.800
2023-02-11T17:09:04.928Z,38.300
2023-02-11T17:11:05.253Z,34.400
2023-02-11T17:12:04.893Z,34.500
2023-02-11T17:13:04.523Z,37.000
2023-02-11T17:14:05.340Z,36.500
2023-02-11T17:16:05.616Z,38.100